createdAt,value
2022-11-07T00:00:32.393Z,100984.78
2022-11-07T00:03:01.128Z,100971.53
2022-11-07T00:05:30.842Z,100980.91
2022-11-07T00:07:59.465Z,100972.69
2022-11-07T00:10:29.439Z,100964.72
2022-11-07T00:12:58.035Z,100967.50
2022-11-07T00:15:26.688Z,100965.78
2022-11-07T00:17:55.341Z,100968.06
2022-11-07T00:20:23.995Z,100959.13
2022-11-07T00:22:52.706Z,100968.72
2022-11-07T00:25:21.415Z,100953.59
2022-11-07T00:27:51.449Z,100960.31
2022-11-07T00:30:20.111Z,100965.75
2022-11-07T00:32:48.699Z,100969.00
2022-11-07T00:35:17.689Z,100970.50
2022-11-07T00:37:46.362Z,100976.91
2022-11-07T00:40:15.020Z,100963.94
2022-11-07T00:42:43.932Z,100964.03
2022-11-07T00:45:14.185Z,100957.72
2022-11-07T00:47:42.796Z,100970.25
2022-11-07T00:50:11.911Z,100966.38
2022-11-07T00:52:40.499Z,100971.38
2022-11-07T00:55:09.696Z,100962.06
2022-11-07T00:57:38.285Z,100963.47
2022-11-07T01:00:08.444Z,100972.91
2022-11-07T01:02:38.519Z,100968.97
2022-11-07T01:05:13.214Z,100965.28
2022-11-07T01:07:42.182Z,100958.84
2022-11-07T01:10:10.780Z,100954.31
2022-11-07T01:12:39.338Z,100955.63
2022-11-07T01:15:08.743Z,100948.38
2022-11-07T01:17:38.721Z,100936.09
2022-11-07T01:20:09.013Z,100946.09
2022-11-07T01:22:37.583Z,100944.94
2022-11-07T01:25:07.147Z,100947.69
2022-11-07T01:27:35.702Z,100939.59
2022-11-07T01:30:04.710Z,100939.34
2022-11-07T01:32:33.315Z,100936.59
2022-11-07T01:35:03.386Z,100932.44
2022-11-07T01:37:31.962Z,100930.03
2022-11-07T01:40:00.741Z,100927.34
2022-11-07T01:42:29.320Z,100926.41
2022-11-07T01:45:00.006Z,100927.13
2022-11-07T01:47:34.528Z,100934.00
2022-11-07T01:50:07.431Z,100931.31
2022-11-07T01:52:40.615Z,100933.91
2022-11-07T01:55:13.383Z,100921.06
2022-11-07T01:57:46.578Z,100921.06
2022-11-07T02:00:19.131Z,100928.53
2022-11-07T02:02:50.615Z,100909.94
2022-11-07T02:05:25.867Z,100908.63
2022-11-07T02:07:55.012Z,100912.13
2022-11-07T02:10:24.595Z,100911.59
2022-11-07T02:12:53.444Z,100916.94
2022-11-07T02:15:22.081Z,100910.66
2022-11-07T02:17:51.103Z,100910.66
2022-11-07T02:20:21.302Z,100915.44
2022-11-07T02:22:54.876Z,100910.28
2022-11-07T02:25:25.309Z,100912.78
2022-11-07T02:27:57.868Z,100902.19
2022-11-07T02:30:28.929Z,100898.84
2022-11-07T02:32:57.281Z,100902.28
2022-11-07T02:35:40.647Z,100898.91
2022-11-07T02:38:13.748Z,100882.78
2022-11-07T02:40:46.025Z,100896.88
2022-11-07T02:43:16.202Z,100887.47
2022-11-07T02:45:47.931Z,100889.69
2022-11-07T02:48:16.586Z,100899.84
2022-11-07T02:50:45.513Z,100897.69
2022-11-07T02:53:14.420Z,100891.81
2022-11-07T02:55:44.723Z,100899.59
2022-11-07T02:58:13.479Z,100887.22
2022-11-07T03:00:42.142Z,100886.63
2022-11-07T03:03:10.854Z,100889.69
2022-11-07T03:05:39.532Z,100880.75
2022-11-07T03:08:08.383Z,100869.00
2022-11-07T03:10:37.099Z,100877.31
2022-11-07T03:13:07.120Z,100886.69
2022-11-07T03:15:35.683Z,100883.78
2022-11-07T03:18:04.288Z,100885.69
2022-11-07T03:20:32.952Z,100885.16
2022-11-07T03:23:01.574Z,100880.56
2022-11-07T03:25:30.226Z,100877.16
2022-11-07T03:27:58.901Z,100871.16
2022-11-07T03:30:28.962Z,100864.00
2022-11-07T03:32:58.498Z,100862.88
2022-11-07T03:35:28.107Z,100862.66
2022-11-07T03:37:56.772Z,100862.34
2022-11-07T03:40:25.389Z,100860.63
2022-11-07T03:42:54.090Z,100865.75
2022-11-07T03:45:22.854Z,100867.38
2022-11-07T03:47:52.951Z,100878.91
2022-11-07T03:50:24.300Z,100872.50
2022-11-07T03:52:53.036Z,100872.41
2022-11-07T03:55:21.618Z,100870.41
2022-11-07T03:57:50.303Z,100867.59
2022-11-07T04:00:19.541Z,100861.63
2022-11-07T04:02:48.660Z,100859.94
2022-11-07T04:05:19.242Z,100863.66
2022-11-07T04:07:48.268Z,100861.16
2022-11-07T04:10:17.485Z,100856.88
2022-11-07T04:13:06.783Z,100866.94
2022-11-07T04:15:52.933Z,100867.03
2022-11-07T04:18:22.327Z,100848.63
2022-11-07T04:20:56.334Z,100858.59
2022-11-07T04:23:27.872Z,100858.59
2022-11-07T04:26:14.073Z,100858.13
2022-11-07T04:28:43.190Z,100854.50
2022-11-07T04:31:14.323Z,100840.28
2022-11-07T04:33:43.874Z,100838.38
2022-11-07T04:36:14.403Z,100838.69
2022-11-07T04:38:43.222Z,100831.44
2022-11-07T04:41:20.991Z,100840.19
2022-11-07T04:43:50.047Z,100841.25
2022-11-07T04:46:19.211Z,100843.69
2022-11-07T04:48:48.261Z,100839.50
2022-11-07T04:51:22.502Z,100834.63
2022-11-07T04:53:51.502Z,100840.03
2022-11-07T04:56:20.493Z,100835.72
2022-11-07T04:58:49.382Z,100834.09
2022-11-07T05:01:18.701Z,100829.56
2022-11-07T05:03:48.324Z,100835.53
2022-11-07T05:06:19.719Z,100839.06
2022-11-07T05:08:48.824Z,100826.78
2022-11-07T05:11:17.772Z,100825.84
2022-11-07T05:13:46.701Z,100822.56
2022-11-07T05:16:18.701Z,100833.16
2022-11-07T05:18:48.163Z,100831.38
2022-11-07T05:21:19.289Z,100828.63
2022-11-07T05:23:47.107Z,100836.84
2022-11-07T05:26:15.986Z,100826.31
2022-11-07T05:28:45.163Z,100831.53
2022-11-07T05:31:17.246Z,100825.13
2022-11-07T05:33:46.083Z,100835.16
2022-11-07T05:36:17.066Z,100821.25
2022-11-07T05:38:47.833Z,100822.94
2022-11-07T05:41:18.882Z,100822.63
2022-11-07T05:43:47.965Z,100826.19
2022-11-07T05:46:16.960Z,100821.88
2022-11-07T05:48:45.808Z,100823.44
2022-11-07T05:51:14.604Z,100822.09
2022-11-07T05:53:43.490Z,100819.84
2022-11-07T05:56:13.847Z,100824.59
2022-11-07T05:58:42.708Z,100814.50
2022-11-07T06:01:11.505Z,100815.06
2022-11-07T06:03:41.705Z,100817.06
2022-11-07T06:06:10.525Z,100829.06
2022-11-07T06:08:39.335Z,100830.31
2022-11-07T06:11:09.303Z,100835.53
2022-11-07T06:13:39.769Z,100831.13
2022-11-07T06:16:09.362Z,100832.13
2022-11-07T06:18:41.582Z,100829.94
2022-11-07T06:21:10.821Z,100826.72
2022-11-07T06:23:39.814Z,100838.66
2022-11-07T06:26:08.813Z,100830.22
2022-11-07T06:28:39.456Z,100836.00
2022-11-07T06:31:08.248Z,100836.75
2022-11-07T06:33:37.228Z,100842.59
2022-11-07T06:36:07.467Z,100836.47
2022-11-07T06:38:36.423Z,100836.19
2022-11-07T06:41:09.988Z,100840.13
2022-11-07T06:43:41.048Z,100840.38
2022-11-07T06:46:12.698Z,100842.31
2022-11-07T06:48:41.643Z,100839.09
2022-11-07T06:51:11.989Z,100829.53
2022-11-07T06:53:43.779Z,100832.75
2022-11-07T06:56:16.736Z,100824.31
2022-11-07T06:58:47.246Z,100826.97
2022-11-07T07:01:16.712Z,100823.03
2022-11-07T07:03:46.336Z,100815.78
2022-11-07T07:06:17.776Z,100821.16
2022-11-07T07:08:47.053Z,100817.94
2022-11-07T07:11:16.909Z,100815.28
2022-11-07T07:13:47.222Z,100822.13
2022-11-07T07:16:15.982Z,100815.50
2022-11-07T07:18:44.713Z,100822.25
2022-11-07T07:21:15.760Z,100814.03
2022-11-07T07:23:44.312Z,100814.69
2022-11-07T07:26:15.826Z,100818.75
2022-11-07T07:28:46.420Z,100811.69
2022-11-07T07:31:23.729Z,100812.03
2022-11-07T07:33:52.644Z,100817.69
2022-11-07T07:36:22.145Z,100819.16
2022-11-07T07:38:51.428Z,100810.63
2022-11-07T07:41:20.785Z,100810.19
2022-11-07T07:43:51.943Z,100816.50
2022-11-07T07:46:24.983Z,100813.81
2022-11-07T07:48:53.783Z,100811.91
2022-11-07T07:51:22.990Z,100815.75
2022-11-07T07:53:51.791Z,100816.84
2022-11-07T07:56:20.625Z,100815.75
2022-11-07T07:58:51.043Z,100822.81
2022-11-07T08:01:20.102Z,100811.78
2022-11-07T08:04:05.247Z,100823.16
2022-11-07T08:06:35.709Z,100820.25
2022-11-07T08:09:04.724Z,100815.28
2022-11-07T08:11:33.927Z,100818.63
2022-11-07T08:14:04.429Z,100803.72
2022-11-07T08:16:33.411Z,100812.72
2022-11-07T08:19:02.083Z,100814.44
2022-11-07T08:21:30.867Z,100808.88
2022-11-07T08:24:01.072Z,100809.28
2022-11-07T08:26:29.936Z,100803.84
2022-11-07T08:28:58.786Z,100813.78
2022-11-07T08:31:29.154Z,100802.84
2022-11-07T08:33:59.547Z,100800.06
2022-11-07T08:36:28.952Z,100795.16
2022-11-07T08:38:58.037Z,100795.91
2022-11-07T08:41:26.867Z,100798.13
2022-11-07T08:43:55.604Z,100795.34
2022-11-07T08:46:24.493Z,100786.09
2022-11-07T08:48:54.727Z,100784.91
2022-11-07T08:51:23.552Z,100792.28
2022-11-07T08:53:52.204Z,100783.50
2022-11-07T08:56:21.062Z,100783.91
2022-11-07T08:58:49.786Z,100777.09
2022-11-07T09:01:18.836Z,100778.31
2022-11-07T09:03:54.719Z,100770.41
2022-11-07T09:06:28.322Z,100780.88
2022-11-07T09:08:57.242Z,100776.78
2022-11-07T09:11:26.493Z,100770.56
2022-11-07T09:13:56.541Z,100769.72
2022-11-07T09:16:25.907Z,100768.63
2022-11-07T09:18:54.564Z,100761.38
2022-11-07T09:21:23.308Z,100772.22
2022-11-07T09:23:54.147Z,100772.84
2022-11-07T09:26:23.202Z,100769.47
2022-11-07T09:28:56.033Z,100763.63
2022-11-07T09:31:28.972Z,100772.16
2022-11-07T09:33:57.975Z,100769.22
2022-11-07T09:36:26.812Z,100770.72
2022-11-07T09:38:59.383Z,100772.03
2022-11-07T09:41:40.777Z,100767.41
2022-11-07T09:44:30.604Z,100784.09
2022-11-07T09:47:05.543Z,100776.81
2022-11-07T09:49:39.623Z,100769.38
2022-11-07T09:52:17.226Z,100769.38
2022-11-07T09:54:53.025Z,100772.59
2022-11-07T09:57:22.010Z,100765.63
2022-11-07T09:59:54.603Z,100767.16
2022-11-07T10:02:26.378Z,100759.34
2022-11-07T10:04:58.746Z,100764.44
2022-11-07T10:07:40.665Z,100763.59
2022-11-07T10:10:19.986Z,100763.69
2022-11-07T10:13:07.913Z,100758.25
2022-11-07T10:15:49.306Z,100760.16
2022-11-07T10:18:28.814Z,100758.09
2022-11-07T10:21:35.669Z,100754.59
2022-11-07T10:24:05.162Z,100743.66
2022-11-07T10:26:35.956Z,100746.81
2022-11-07T10:29:14.813Z,100743.81
2022-11-07T10:31:47.817Z,100753.09
2022-11-07T10:34:23.010Z,100748.00
2022-11-07T10:36:51.922Z,100740.84
2022-11-07T10:39:21.176Z,100731.56
2022-11-07T10:42:01.173Z,100734.19
2022-11-07T10:44:31.214Z,100725.31
2022-11-07T10:47:00.053Z,100720.38
2022-11-07T10:49:30.950Z,100709.38
2022-11-07T10:52:08.944Z,100712.03
2022-11-07T10:54:37.776Z,100710.09
2022-11-07T10:57:13.976Z,100706.00
2022-11-07T10:59:48.372Z,100707.19
2022-11-07T11:02:22.824Z,100698.22
2022-11-07T11:04:56.633Z,100706.50
2022-11-07T11:07:28.821Z,100707.84
2022-11-07T11:09:59.105Z,100695.09
2022-11-07T11:12:34.256Z,100699.38
2022-11-07T11:15:09.504Z,100695.47
2022-11-07T11:17:38.600Z,100695.47
2022-11-07T11:20:10.029Z,100699.13
2022-11-07T11:22:43.565Z,100692.91
2022-11-07T11:25:20.649Z,100702.16
2022-11-07T11:27:56.523Z,100694.97
2022-11-07T11:30:26.472Z,100694.25
2022-11-07T11:33:03.883Z,100693.50
2022-11-07T11:35:41.990Z,100689.59
2022-11-07T11:38:18.065Z,100692.41
2022-11-07T11:40:53.368Z,100691.34
2022-11-07T11:43:35.023Z,100686.72
2022-11-07T11:46:11.009Z,100685.00
2022-11-07T11:48:45.670Z,100686.94
2022-11-07T11:51:21.025Z,100680.72
2022-11-07T11:53:50.146Z,100680.88
2022-11-07T11:56:28.382Z,100681.81
2022-11-07T11:59:13.662Z,100669.19
2022-11-07T12:01:49.563Z,100665.31
2022-11-07T12:04:39.821Z,100669.13
2022-11-07T12:07:22.350Z,100659.31
2022-11-07T12:09:58.425Z,100662.81
2022-11-07T12:12:33.087Z,100659.66
2022-11-07T12:15:22.804Z,100666.47
2022-11-07T12:18:00.181Z,100663.22
2022-11-07T12:20:34.467Z,100664.16
2022-11-07T12:23:23.293Z,100662.97
2022-11-07T12:25:57.210Z,100652.75
2022-11-07T12:28:36.588Z,100646.06
2022-11-07T12:31:17.804Z,100641.91
2022-11-07T12:33:49.112Z,100636.81
2022-11-07T12:36:31.385Z,100635.81
2022-11-07T12:39:38.150Z,100633.88
2022-11-07T12:42:10.157Z,100630.72
2022-11-07T12:44:50.425Z,100630.97
2022-11-07T12:47:38.996Z,100620.94
2022-11-07T12:50:24.390Z,100616.06
2022-11-07T12:53:06.465Z,100613.50
2022-11-07T12:55:42.167Z,100614.25
2022-11-07T12:58:18.479Z,100611.19
2022-11-07T13:00:51.221Z,100615.31
2022-11-07T13:03:44.171Z,100614.91
2022-11-07T13:06:19.346Z,100619.50
2022-11-07T13:08:56.576Z,100612.38
2022-11-07T13:11:34.011Z,100611.63
2022-11-07T13:14:23.525Z,100611.72
2022-11-07T13:17:04.685Z,100620.59
2022-11-07T13:19:36.872Z,100617.94
2022-11-07T13:22:08.065Z,100617.22
2022-11-07T13:24:40.514Z,100618.41
2022-11-07T13:27:22.169Z,100624.84
2022-11-07T13:29:52.132Z,100624.44
2022-11-07T13:32:21.514Z,100624.19
2022-11-07T13:34:58.744Z,100617.25
2022-11-07T13:37:31.393Z,100619.31
2022-11-07T13:40:04.099Z,100624.91
2022-11-07T13:42:35.242Z,100629.75
2022-11-07T13:45:19.614Z,100622.69
2022-11-07T13:47:49.253Z,100615.88
2022-11-07T13:50:25.135Z,100606.38
2022-11-07T13:53:00.669Z,100608.06
2022-11-07T13:55:36.746Z,100605.53
2022-11-07T13:58:10.080Z,100597.50
2022-11-07T14:00:39.439Z,100582.38
2022-11-07T14:03:08.238Z,100578.94
2022-11-07T14:05:39.159Z,100560.81
2022-11-07T14:08:14.921Z,100576.22
2022-11-07T14:10:47.420Z,100588.97
2022-11-07T14:13:23.002Z,100577.78
2022-11-07T14:15:55.113Z,100570.09
2022-11-07T14:18:26.484Z,100581.63
2022-11-07T14:20:59.686Z,100574.94
2022-11-07T14:23:32.580Z,100573.34
2022-11-07T14:26:03.061Z,100574.06
2022-11-07T14:28:36.310Z,100578.44
2022-11-07T14:31:07.236Z,100574.47
2022-11-07T14:33:36.217Z,100560.59
2022-11-07T14:36:08.343Z,100555.00
2022-11-07T14:38:37.221Z,100545.31
2022-11-07T14:41:06.138Z,100550.97
2022-11-07T14:43:35.920Z,100553.66
2022-11-07T14:46:12.857Z,100543.41
2022-11-07T14:48:44.030Z,100563.91
2022-11-07T14:51:16.739Z,100554.56
2022-11-07T14:53:54.440Z,100554.41
2022-11-07T14:56:30.290Z,100557.66
2022-11-07T14:58:59.834Z,100557.13
2022-11-07T15:01:31.428Z,100549.31
2022-11-07T15:04:02.998Z,100560.25
2022-11-07T15:06:35.873Z,100547.13
2022-11-07T15:09:07.657Z,100533.66
2022-11-07T15:11:38.233Z,100536.72
2022-11-07T15:14:23.318Z,100524.59
2022-11-07T15:16:53.502Z,100520.25
2022-11-07T15:19:24.863Z,100490.00
2022-11-07T15:21:57.431Z,100493.69
2022-11-07T15:24:38.840Z,100505.38
2022-11-07T15:27:18.632Z,100515.13
2022-11-07T15:29:52.971Z,100497.19
2022-11-07T15:32:23.353Z,100518.19
2022-11-07T15:35:07.960Z,100518.75
2022-11-07T15:37:55.251Z,100514.47
2022-11-07T15:40:25.171Z,100512.88
2022-11-07T15:42:54.151Z,100518.59
2022-11-07T15:45:24.136Z,100504.84
2022-11-07T15:47:53.161Z,100492.28
2022-11-07T15:50:24.960Z,100487.56
2022-11-07T15:52:55.693Z,100485.25
2022-11-07T15:55:25.300Z,100479.91
2022-11-07T15:57:55.459Z,100459.78
2022-11-07T16:00:26.379Z,100456.72
2022-11-07T16:02:55.442Z,100446.69
2022-11-07T16:05:24.354Z,100454.88
2022-11-07T16:07:54.634Z,100455.97
2022-11-07T16:10:26.316Z,100455.47
2022-11-07T16:12:56.721Z,100466.22
2022-11-07T16:15:27.935Z,100452.13
2022-11-07T16:17:57.139Z,100448.69
2022-11-07T16:20:25.889Z,100443.78
2022-11-07T16:22:56.032Z,100433.75
2022-11-07T16:25:30.592Z,100418.56
2022-11-07T16:28:01.112Z,100414.56
2022-11-07T16:30:29.910Z,100415.63
2022-11-07T16:32:58.611Z,100420.13
2022-11-07T16:35:27.333Z,100430.50
2022-11-07T16:38:00.333Z,100433.81
2022-11-07T16:40:29.093Z,100436.75
2022-11-07T16:42:58.013Z,100433.34
2022-11-07T16:45:26.730Z,100443.09
2022-11-07T16:47:55.350Z,100440.63
2022-11-07T16:50:24.652Z,100441.59
2022-11-07T16:52:53.168Z,100438.94
2022-11-07T16:55:23.329Z,100430.91
2022-11-07T16:57:51.869Z,100429.22
2022-11-07T17:00:26.012Z,100432.91
2022-11-07T17:02:55.592Z,100433.59
2022-11-07T17:05:24.324Z,100433.34
2022-11-07T17:07:54.532Z,100434.34
2022-11-07T17:10:24.991Z,100429.25
2022-11-07T17:12:55.310Z,100423.50
2022-11-07T17:15:24.171Z,100419.06
2022-11-07T17:17:57.886Z,100430.00
2022-11-07T17:20:50.005Z,100426.25
2022-11-07T17:23:17.992Z,100417.09
2022-11-07T17:25:52.712Z,100419.75
2022-11-07T17:28:21.809Z,100423.91
2022-11-07T17:30:50.428Z,100419.09
2022-11-07T17:33:19.189Z,100422.75
2022-11-07T17:35:48.571Z,100422.16
2022-11-07T17:38:17.961Z,100414.16
2022-11-07T17:40:48.434Z,100412.31
2022-11-07T17:43:17.122Z,100410.88
2022-11-07T17:45:45.846Z,100404.47
2022-11-07T17:48:15.030Z,100395.94
2022-11-07T17:50:43.837Z,100396.69
2022-11-07T17:53:12.403Z,100402.38
2022-11-07T17:55:41.063Z,100395.19
2022-11-07T17:58:11.754Z,100400.19
2022-11-07T18:00:40.699Z,100402.28
2022-11-07T18:03:09.748Z,100399.47
2022-11-07T18:05:38.389Z,100394.63
2022-11-07T18:08:09.336Z,100394.75
2022-11-07T18:10:52.619Z,100393.44
2022-11-07T18:13:26.467Z,100389.56
2022-11-07T18:15:55.143Z,100382.47
2022-11-07T18:18:23.736Z,100386.38
2022-11-07T18:20:52.530Z,100375.91
2022-11-07T18:23:21.306Z,100376.41
2022-11-07T18:25:49.961Z,100373.00
2022-11-07T18:28:19.037Z,100378.13
2022-11-07T18:30:49.708Z,100376.69
2022-11-07T18:33:18.228Z,100374.97
2022-11-07T18:35:47.106Z,100369.78
2022-11-07T18:38:15.916Z,100374.03
2022-11-07T18:40:44.854Z,100367.09
2022-11-07T18:43:13.500Z,100365.63
2022-11-07T18:45:43.062Z,100362.84
2022-11-07T18:48:13.398Z,100359.44
2022-11-07T18:50:42.168Z,100363.44
2022-11-07T18:53:10.685Z,100361.25
2022-11-07T18:55:39.556Z,100357.00
2022-11-07T18:58:08.093Z,100355.31
2022-11-07T19:00:36.752Z,100341.97
2022-11-07T19:03:05.511Z,100339.66
2022-11-07T19:05:40.922Z,100334.56
2022-11-07T19:08:09.972Z,100333.00
2022-11-07T19:10:38.526Z,100327.88
2022-11-07T19:13:08.298Z,100315.88
2022-11-07T19:15:40.234Z,100309.63
2022-11-07T19:18:08.874Z,100303.84
2022-11-07T19:20:40.244Z,100305.66
2022-11-07T19:23:08.990Z,100302.38
2022-11-07T19:25:40.064Z,100300.16
2022-11-07T19:28:08.625Z,100292.28
2022-11-07T19:30:38.121Z,100291.31
2022-11-07T19:33:08.234Z,100290.72
2022-11-07T19:35:39.447Z,100298.75
2022-11-07T19:38:10.111Z,100294.22
2022-11-07T19:40:38.733Z,100288.88
2022-11-07T19:43:09.646Z,100291.19
2022-11-07T19:45:42.263Z,100281.72
2022-11-07T19:48:12.134Z,100292.41
2022-11-07T19:50:42.145Z,100279.78
2022-11-07T19:53:10.808Z,100274.81
2022-11-07T19:55:40.281Z,100274.41
2022-11-07T19:58:09.886Z,100274.66
2022-11-07T20:00:38.406Z,100262.28
2022-11-07T20:03:07.102Z,100259.84
2022-11-07T20:05:35.667Z,100261.50
2022-11-07T20:08:06.078Z,100273.31
2022-11-07T20:10:34.995Z,100267.47
2022-11-07T20:13:03.594Z,100264.09
2022-11-07T20:15:32.095Z,100269.56
2022-11-07T20:18:00.651Z,100261.28
2022-11-07T20:20:29.324Z,100267.38
2022-11-07T20:23:00.383Z,100250.84
2022-11-07T20:25:30.285Z,100248.03
2022-11-07T20:27:59.022Z,100251.56
2022-11-07T20:30:27.674Z,100240.63
2022-11-07T20:32:56.245Z,100243.31
2022-11-07T20:35:24.934Z,100242.31
2022-11-07T20:37:53.464Z,100241.97
2022-11-07T20:40:25.165Z,100233.09
2022-11-07T20:43:00.011Z,100231.00
2022-11-07T20:45:28.588Z,100237.44
2022-11-07T20:47:57.153Z,100231.84
2022-11-07T20:50:25.770Z,100236.25
2022-11-07T20:52:57.558Z,100229.91
2022-11-07T20:55:28.539Z,100231.38
2022-11-07T20:57:59.640Z,100227.69
2022-11-07T21:00:28.363Z,100226.13
2022-11-07T21:02:57.065Z,100230.38
2022-11-07T21:05:25.665Z,100226.59
2022-11-07T21:07:56.545Z,100229.16
2022-11-07T21:10:25.062Z,100220.75
2022-11-07T21:12:53.628Z,100227.06
2022-11-07T21:15:23.801Z,100219.19
2022-11-07T21:17:52.299Z,100220.16
2022-11-07T21:20:20.954Z,100218.19
2022-11-07T21:22:50.919Z,100222.44
2022-11-07T21:25:19.700Z,100218.19
2022-11-07T21:27:48.238Z,100216.13
2022-11-07T21:30:20.315Z,100225.25
2022-11-07T21:32:50.439Z,100218.19
2022-11-07T21:35:18.962Z,100216.25
2022-11-07T21:37:47.622Z,100217.81
2022-11-07T21:40:16.171Z,100216.13
2022-11-07T21:42:44.882Z,100222.34
2022-11-07T21:45:15.824Z,100220.50
2022-11-07T21:47:46.016Z,100217.72
2022-11-07T21:50:42.886Z,100217.72
2022-11-07T21:53:06.738Z,100214.88
2022-11-07T21:55:35.882Z,100217.56
2022-11-07T21:58:04.518Z,100208.56
2022-11-07T22:00:36.497Z,100205.66
2022-11-07T22:03:05.880Z,100208.91
2022-11-07T22:05:39.432Z,100209.88
2022-11-07T22:08:08.154Z,100203.16
2022-11-07T22:10:37.640Z,100197.69
2022-11-07T22:13:07.406Z,100191.09
2022-11-07T22:15:35.983Z,100197.06
2022-11-07T22:18:04.853Z,100197.91
2022-11-07T22:20:33.442Z,100190.72
2022-11-07T22:23:03.677Z,100202.03
2022-11-07T22:25:34.107Z,100197.50
2022-11-07T22:28:02.794Z,100184.03
2022-11-07T22:30:31.763Z,100197.25
2022-11-07T22:33:00.483Z,100186.28
2022-11-07T22:35:29.055Z,100191.50
2022-11-07T22:37:57.737Z,100184.22
2022-11-07T22:40:27.982Z,100179.59
2022-11-07T22:42:56.973Z,100180.31
2022-11-07T22:45:25.563Z,100177.22
2022-11-07T22:47:54.210Z,100166.38
2022-11-07T22:50:22.947Z,100165.16
2022-11-07T22:52:51.623Z,100157.84
2022-11-07T22:55:20.220Z,100160.97
2022-11-07T22:57:52.387Z,100153.91
2022-11-07T23:00:22.406Z,100162.66
2022-11-07T23:02:51.069Z,100155.63
2022-11-07T23:05:19.866Z,100158.13
2022-11-07T23:07:50.593Z,100147.44
2022-11-07T23:10:19.929Z,100145.09
2022-11-07T23:12:50.047Z,100154.81
2022-11-07T23:15:18.858Z,100145.94
2022-11-07T23:17:47.397Z,100142.13
2022-11-07T23:20:36.048Z,100142.56
2022-11-07T23:23:05.257Z,100137.66
2022-11-07T23:25:34.108Z,100152.06
2022-11-07T23:28:04.545Z,100148.53
2022-11-07T23:30:33.428Z,100146.97
2022-11-07T23:33:02.090Z,100148.66
2022-11-07T23:35:33.197Z,100137.22
2022-11-07T23:38:01.504Z,100133.81
2022-11-07T23:40:30.243Z,100134.69
2022-11-07T23:42:58.923Z,100139.19
2022-11-07T23:46:00.771Z,100125.66
2022-11-07T23:48:46.834Z,100136.25
2022-11-07T23:51:16.113Z,100140.50
2022-11-07T23:54:02.456Z,100126.22
2022-11-07T23:56:31.125Z,100126.09
2022-11-07T23:59:16.951Z,100135.72
